Time;durP1;ratioP1;P1;durP2;ratioP2;P2;SDS_P1;SDS_P2;PMS_P1;PMS_P2;Temp;Humidity;BMP_temperature;BMP_pressure;BME280_temperature;BME280_humidity;BME280_pressure;Samples;Min_cycle;Max_cycle;Signal;HPM_P1;HPM_P2
2021/01/07 00:00:32;;;;;;;8.45;6.25;;;;;;;1.23;94.53;100324.84;4980864;28;20054;-65
2021/01/07 00:02:59;;;;;;;11.50;6.10;;;;;;;1.29;94.46;100329.84;4980338;28;20071;-63
2021/01/07 00:05:26;;;;;;;8.57;6.30;;;;;;;0.75;95.62;100336.34;4980457;28;20132;-67
2021/01/07 00:07:52;;;;;;;8.88;6.00;;;;;;;0.74;95.81;100337.25;4978288;28;20058;-66
2021/01/07 00:10:19;;;;;;;11.50;7.40;;;;;;;0.67;96.55;100335.66;4981985;28;20145;-65
2021/01/07 00:12:46;;;;;;;10.95;6.97;;;;;;;0.60;96.56;100338.47;4980660;28;20046;-65
2021/01/07 00:15:13;;;;;;;9.80;7.05;;;;;;;0.87;96.06;100330.03;4979632;28;20065;-66
2021/01/07 00:17:39;;;;;;;9.10;7.13;;;;;;;0.78;96.62;100325.06;4966845;28;20130;-65
2021/01/07 00:20:08;;;;;;;11.13;6.57;;;;;;;0.93;95.54;100318.66;4982263;28;20801;-64
2021/01/07 00:22:36;;;;;;;10.65;6.57;;;;;;;0.79;96.28;100316.41;5017739;23;20049;-59
2021/01/07 00:25:07;;;;;;;8.63;6.75;;;;;;;0.97;95.99;100315.97;5022310;28;20542;-57
2021/01/07 00:27:34;;;;;;;9.45;6.13;;;;;;;0.92;95.11;100317.81;5006371;28;20045;-56
2021/01/07 00:30:02;;;;;;;9.73;6.30;;;;;;;0.79;95.13;100321.59;5022724;28;21656;-61
2021/01/07 00:32:29;;;;;;;8.52;6.32;;;;;;;0.65;95.37;100324.50;4987681;28;20531;-60
2021/01/07 00:34:56;;;;;;;9.25;5.60;;;;;;;0.70;95.59;100320.06;5001756;28;20061;-62
2021/01/07 00:37:22;;;;;;;8.25;5.38;;;;;;;0.80;95.94;100320.69;5009292;28;20672;-61
2021/01/07 00:39:49;;;;;;;8.30;5.85;;;;;;;0.92;95.13;100320.41;4993235;28;20049;-60
2021/01/07 00:42:17;;;;;;;7.72;5.22;;;;;;;0.55;95.29;100323.03;4987714;28;20065;-61
2021/01/07 00:44:45;;;;;;;8.55;6.05;;;;;;;0.52;96.43;100323.06;4985695;28;20061;-60
2021/01/07 00:47:12;;;;;;;7.97;5.30;;;;;;;0.56;96.88;100322.13;5000303;28;20073;-58
2021/01/07 00:49:38;;;;;;;8.75;6.22;;;;;;;0.64;95.76;100333.16;5002714;28;20052;-59
2021/01/07 00:52:05;;;;;;;9.10;6.30;;;;;;;0.48;95.58;100331.81;5000000;28;20054;-58
2021/01/07 00:54:32;;;;;;;9.02;6.38;;;;;;;0.50;96.59;100328.31;5002650;28;20050;-58
2021/01/07 00:56:58;;;;;;;9.32;6.65;;;;;;;0.50;96.55;100335.22;4986318;28;20050;-56
2021/01/07 00:59:25;;;;;;;8.60;6.70;;;;;;;0.42;96.66;100334.53;4993361;28;20042;-61
2021/01/07 01:01:52;;;;;;;8.93;6.20;;;;;;;0.40;96.37;100328.53;4999962;28;20546;-58
2021/01/07 01:04:19;;;;;;;7.90;5.97;;;;;;;0.73;95.87;100332.97;4998068;28;20519;-58
2021/01/07 01:06:45;;;;;;;8.25;5.70;;;;;;;0.85;95.68;100336.13;4987255;28;20634;-58
2021/01/07 01:09:13;;;;;;;8.68;6.47;;;;;;;0.88;94.39;100329.16;4978715;28;20112;-56
2021/01/07 01:11:44;;;;;;;8.65;6.18;;;;;;;0.92;94.80;100329.94;4992879;28;20054;-59
2021/01/07 01:14:18;;;;;;;7.25;5.55;;;;;;;0.99;93.83;100328.88;4999470;28;20502;-59
2021/01/07 01:16:46;;;;;;;7.88;5.85;;;;;;;0.73;94.64;100332.09;5005736;28;20188;-56
2021/01/07 01:19:15;;;;;;;8.20;5.63;;;;;;;0.63;94.64;100330.59;5000576;28;20414;-58
2021/01/07 01:21:41;;;;;;;6.93;5.15;;;;;;;0.73;94.55;100330.38;4982050;28;20066;-58
2021/01/07 01:24:09;;;;;;;8.10;5.88;;;;;;;0.64;94.75;100333.16;5003838;28;20070;-59
2021/01/07 01:26:37;;;;;;;8.63;6.25;;;;;;;0.71;95.06;100331.28;5002871;28;20045;-59
2021/01/07 01:29:03;;;;;;;8.20;5.80;;;;;;;0.67;94.48;100332.22;5001390;28;20205;-57
2021/01/07 01:31:30;;;;;;;5.85;5.07;;;;;;;0.75;95.18;100325.13;4987797;28;20116;-57
2021/01/07 01:33:57;;;;;;;7.03;5.43;;;;;;;0.90;93.72;100329.09;4999110;28;20393;-60
2021/01/07 01:36:27;;;;;;;7.80;5.35;;;;;;;0.87;93.49;100331.78;5011739;28;20033;-59
2021/01/07 01:38:54;;;;;;;6.88;5.38;;;;;;;0.71;93.79;100326.94;5009410;28;20046;-60
2021/01/07 01:41:21;;;;;;;8.38;6.00;;;;;;;0.56;94.42;100335.06;5000520;28;20109;-61
2021/01/07 01:43:48;;;;;;;6.78;5.38;;;;;;;0.66;94.77;100335.72;4998312;28;20073;-58
2021/01/07 01:46:15;;;;;;;8.10;5.90;;;;;;;0.69;93.40;100328.72;5006730;28;20098;-60
2021/01/07 01:48:41;;;;;;;6.95;4.95;;;;;;;0.49;94.12;100329.16;5004535;28;20054;-58
2021/01/07 01:51:09;;;;;;;8.63;6.28;;;;;;;0.51;94.96;100329.16;5002551;28;20062;-58
2021/01/07 01:53:36;;;;;;;7.03;5.38;;;;;;;0.76;94.16;100325.09;4985296;28;20047;-59
2021/01/07 01:56:04;;;;;;;8.75;5.45;;;;;;;0.58;94.19;100322.09;4994279;28;20061;-59
2021/01/07 01:58:33;;;;;;;7.82;5.35;;;;;;;0.42;94.12;100332.78;5002378;28;20046;-56
2021/01/07 02:01:00;;;;;;;7.13;5.32;;;;;;;0.44;94.53;100330.16;5010805;28;20123;-58
2021/01/07 02:03:27;;;;;;;8.38;5.85;;;;;;;0.52;94.68;100323.06;5013052;28;20050;-62
2021/01/07 02:05:54;;;;;;;6.40;4.82;;;;;;;0.64;94.57;100325.41;5015836;28;20072;-59
2021/01/07 02:08:21;;;;;;;6.78;4.97;;;;;;;0.56;93.75;100331.63;5003576;28;20276;-61
2021/01/07 02:10:48;;;;;;;5.90;4.78;;;;;;;0.49;94.27;100329.16;5015660;28;20054;-58
2021/01/07 02:13:15;;;;;;;5.68;4.40;;;;;;;0.38;93.68;100333.75;4987574;28;20391;-59
2021/01/07 02:15:42;;;;;;;5.72;4.50;;;;;;;0.23;95.22;100331.50;4984534;28;20050;-62
2021/01/07 02:18:09;;;;;;;7.03;5.05;;;;;;;0.32;94.87;100330.44;5004288;28;20069;-59
2021/01/07 02:20:38;;;;;;;6.95;5.47;;;;;;;0.34;94.58;100332.09;4992789;28;20053;-61
2021/01/07 02:23:05;;;;;;;6.80;5.07;;;;;;;0.69;93.90;100326.13;5008958;28;20269;-57
2021/01/07 02:25:31;;;;;;;6.05;4.57;;;;;;;0.80;93.29;100327.63;4982096;28;20064;-57
2021/01/07 02:27:58;;;;;;;5.75;4.10;;;;;;;0.83;93.21;100317.19;4990976;28;20046;-58
2021/01/07 02:30:25;;;;;;;5.82;4.43;;;;;;;0.84;93.27;100319.75;4989369;28;20150;-59
2021/01/07 02:32:52;;;;;;;6.30;5.07;;;;;;;0.79;93.05;100312.97;4997071;28;20054;-61
2021/01/07 02:35:18;;;;;;;7.43;4.50;;;;;;;0.78;92.82;100313.88;5004845;28;20053;-59
2021/01/07 02:37:46;;;;;;;6.57;4.93;;;;;;;0.76;93.78;100319.06;5014563;28;20058;-61
2021/01/07 02:40:15;;;;;;;6.45;5.13;;;;;;;0.31;93.88;100326.13;5012099;28;20658;-58
2021/01/07 02:42:41;;;;;;;7.10;5.50;;;;;;;0.24;94.77;100322.84;4998574;28;20106;-60
2021/01/07 02:45:09;;;;;;;7.50;6.38;;;;;;;0.26;94.49;100328.81;5013283;28;20209;-60
2021/01/07 02:47:39;;;;;;;6.53;5.07;;;;;;;0.54;94.53;100312.69;5008873;28;20064;-57
2021/01/07 02:50:07;;;;;;;6.13;4.50;;;;;;;0.44;93.40;100323.25;4999562;28;20398;-59
2021/01/07 02:52:34;;;;;;;5.60;4.18;;;;;;;0.37;93.69;100319.09;4992345;28;20156;-61
2021/01/07 02:55:02;;;;;;;6.63;4.43;;;;;;;0.47;93.44;100311.97;5010524;28;20137;-60
2021/01/07 02:57:29;;;;;;;6.07;4.38;;;;;;;0.50;93.33;100311.91;5004698;28;20546;-57
2021/01/07 02:59:56;;;;;;;6.43;4.70;;;;;;;0.56;92.87;100319.53;5005704;28;20148;-60
2021/01/07 03:02:22;;;;;;;8.15;5.00;;;;;;;0.63;92.70;100315.06;5012600;28;20518;-57
2021/01/07 03:04:49;;;;;;;6.30;4.70;;;;;;;0.72;93.02;100317.44;5005281;28;20057;-58
2021/01/07 03:07:16;;;;;;;7.18;5.03;;;;;;;0.61;92.84;100317.69;5001675;28;20054;-63
2021/01/07 03:09:43;;;;;;;7.50;4.97;;;;;;;0.35;94.09;100317.41;5004622;28;20558;-58
2021/01/07 03:12:13;;;;;;;7.80;5.20;;;;;;;0.27;95.35;100317.59;5006694;28;20060;-61
2021/01/07 03:14:40;;;;;;;8.95;5.50;;;;;;;0.24;95.34;100315.06;5014665;28;20049;-61
2021/01/07 03:17:07;;;;;;;7.38;5.90;;;;;;;0.18;95.67;100317.78;5004576;28;20046;-61
2021/01/07 03:19:34;;;;;;;8.73;6.53;;;;;;;0.37;95.58;100311.34;5004112;28;20486;-60
2021/01/07 03:22:04;;;;;;;7.40;5.70;;;;;;;0.46;94.68;100307.69;5000652;28;20057;-60
2021/01/07 03:24:32;;;;;;;7.82;5.72;;;;;;;0.36;95.04;100316.53;5005655;28;20053;-61
2021/01/07 03:26:59;;;;;;;7.88;5.32;;;;;;;0.42;94.66;100316.41;5001910;28;20507;-61
2021/01/07 03:29:25;;;;;;;7.68;5.78;;;;;;;0.49;94.41;100315.38;4995415;28;20085;-59
2021/01/07 03:31:52;;;;;;;8.38;5.78;;;;;;;0.38;94.46;100320.81;5005248;28;20060;-56
2021/01/07 03:34:19;;;;;;;7.75;5.88;;;;;;;0.32;94.23;100320.94;5006995;28;20046;-59
2021/01/07 03:36:46;;;;;;;8.65;5.93;;;;;;;0.24;94.47;100325.44;4996218;28;20136;-58
2021/01/07 03:39:12;;;;;;;8.05;5.35;;;;;;;0.20;94.42;100316.88;5004891;28;20557;-59
2021/01/07 03:41:39;;;;;;;7.47;5.32;;;;;;;0.11;94.84;100321.41;5010638;28;20046;-57
2021/01/07 03:44:06;;;;;;;7.28;4.80;;;;;;;0.10;95.21;100324.88;5007853;28;20523;-57
2021/01/07 03:46:32;;;;;;;8.73;6.18;;;;;;;0.22;94.76;100319.41;5012712;28;20585;-58
2021/01/07 03:48:59;;;;;;;7.53;5.60;;;;;;;0.26;94.43;100313.28;5009925;28;20111;-59
2021/01/07 03:51:26;;;;;;;7.47;5.18;;;;;;;0.46;94.05;100316.31;5020457;28;20141;-60
2021/01/07 03:53:53;;;;;;;9.23;6.30;;;;;;;0.43;94.34;100318.09;5026298;28;20049;-65
2021/01/07 03:56:20;;;;;;;7.80;5.78;;;;;;;0.29;93.86;100310.66;5010063;28;20054;-58
2021/01/07 03:58:46;;;;;;;9.25;6.22;;;;;;;0.44;93.46;100317.22;5001172;28;20464;-58
2021/01/07 04:01:13;;;;;;;7.43;5.13;;;;;;;0.23;93.74;100315.97;5005381;28;20056;-61
2021/01/07 04:03:40;;;;;;;7.43;5.13;;;;;;;0.40;93.54;100321.59;4986693;28;20419;-58
2021/01/07 04:06:06;;;;;;;8.50;6.07;;;;;;;0.47;93.65;100311.97;4999881;28;20092;-59
2021/01/07 04:08:33;;;;;;;9.75;6.10;;;;;;;0.34;93.51;100313.97;5003631;28;20054;-61
2021/01/07 04:11:00;;;;;;;8.73;6.07;;;;;;;0.29;93.60;100314.97;5005805;28;20062;-59
2021/01/07 04:13:27;;;;;;;10.73;6.95;;;;;;;0.32;93.62;100318.34;5001310;28;20527;-58
2021/01/07 04:15:54;;;;;;;8.57;5.82;;;;;;;0.43;93.73;100312.94;5007070;28;20051;-58
2021/01/07 04:18:20;;;;;;;9.27;6.03;;;;;;;0.43;93.35;100295.66;4999486;28;20045;-57
2021/01/07 04:20:47;;;;;;;11.18;6.32;;;;;;;0.33;93.21;100306.25;4996412;28;20478;-58
2021/01/07 04:23:15;;;;;;;9.88;6.20;;;;;;;0.53;93.25;100298.88;4994223;28;20078;-60
2021/01/07 04:25:42;;;;;;;10.77;6.68;;;;;;;0.29;92.78;100300.28;5001923;28;20060;-57
2021/01/07 04:28:09;;;;;;;11.35;6.65;;;;;;;0.33;92.62;100301.94;5000887;28;20050;-56
2021/01/07 04:30:36;;;;;;;10.73;6.35;;;;;;;0.37;93.50;100302.72;4999542;28;20049;-58
2021/01/07 04:33:03;;;;;;;9.95;6.25;;;;;;;0.41;93.01;100297.44;5000429;28;20050;-56
2021/01/07 04:35:29;;;;;;;12.15;6.32;;;;;;;0.36;93.12;100299.28;4979737;28;20140;-60
2021/01/07 04:37:56;;;;;;;9.77;6.93;;;;;;;0.32;93.39;100302.81;5002580;28;20050;-59
2021/01/07 04:40:23;;;;;;;10.02;6.30;;;;;;;0.42;92.98;100300.88;4987037;28;20427;-60
2021/01/07 04:42:50;;;;;;;11.43;7.32;;;;;;;0.54;92.76;100302.31;5004909;28;20588;-56
2021/01/07 04:45:17;;;;;;;10.38;6.82;;;;;;;0.44;92.34;100302.53;4984801;28;20604;-57
2021/01/07 04:47:49;;;;;;;11.55;7.05;;;;;;;0.30;92.72;100307.16;5005899;28;20058;-61
2021/01/07 04:50:16;;;;;;;11.48;7.13;;;;;;;0.30;93.35;100302.00;5001633;28;20104;-57
2021/01/07 04:52:43;;;;;;;12.80;7.97;;;;;;;0.43;93.76;100306.00;4987025;28;20054;-57
2021/01/07 04:55:11;;;;;;;13.35;8.10;;;;;;;0.44;93.31;100312.03;5004168;28;20053;-59
2021/01/07 04:57:39;;;;;;;11.63;7.15;;;;;;;0.65;93.21;100295.16;4991260;28;20390;-59
2021/01/07 05:00:08;;;;;;;13.48;8.13;;;;;;;0.45;92.57;100301.66;4998522;28;20058;-57
2021/01/07 05:02:35;;;;;;;13.10;8.70;;;;;;;0.28;93.50;100303.78;5019746;28;20658;-59
2021/01/07 05:05:04;;;;;;;15.32;9.25;;;;;;;0.23;94.52;100295.25;4990928;28;20137;-56
2021/01/07 05:07:30;;;;;;;14.32;8.18;;;;;;;0.20;94.43;100301.34;5012704;28;20718;-57
2021/01/07 05:10:03;;;;;;;14.43;8.68;;;;;;;0.32;94.23;100299.38;5019671;28;20046;-62
2021/01/07 05:12:30;;;;;;;13.20;8.98;;;;;;;0.31;94.38;100308.84;5007428;28;20084;-59
2021/01/07 05:14:56;;;;;;;15.13;8.82;;;;;;;0.41;93.90;100299.19;5003839;28;20053;-58
2021/01/07 05:17:23;;;;;;;14.95;8.95;;;;;;;0.54;93.60;100304.91;4990683;28;20046;-59
2021/01/07 05:19:50;;;;;;;14.30;8.43;;;;;;;0.43;93.79;100293.06;5003184;28;20156;-58
2021/01/07 05:22:17;;;;;;;14.20;8.73;;;;;;;0.43;93.55;100295.66;4989605;28;20523;-58
2021/01/07 05:24:43;;;;;;;14.60;8.90;;;;;;;0.25;94.93;100296.06;5006391;28;20057;-56
2021/01/07 05:27:12;;;;;;;14.65;9.05;;;;;;;0.22;94.93;100303.88;4990147;28;20092;-62
2021/01/07 05:29:40;;;;;;;16.92;9.60;;;;;;;0.39;94.68;100309.56;5008787;28;20050;-58
2021/01/07 05:32:07;;;;;;;15.07;9.30;;;;;;;0.12;95.22;100302.38;5011306;28;20054;-61
2021/01/07 05:34:50;;;;;;;15.07;9.75;;;;;;;0.08;96.23;100306.78;5009674;28;20081;-56
2021/01/07 05:37:18;;;;;;;16.95;10.35;;;;;;;0.19;96.21;100302.22;4990210;28;20049;-58
2021/01/07 05:39:49;;;;;;;17.50;9.65;;;;;;;0.17;95.92;100301.41;4990858;28;20078;-59
2021/01/07 05:42:16;;;;;;;16.75;10.38;;;;;;;-0.02;96.58;100306.13;5005221;28;20042;-58
2021/01/07 05:44:49;;;;;;;17.17;10.60;;;;;;;0.20;96.56;100303.94;5008812;28;20049;-60
2021/01/07 05:47:30;;;;;;;15.20;9.75;;;;;;;0.19;96.36;100310.00;5008576;28;20073;-55
2021/01/07 05:49:57;;;;;;;19.10;9.48;;;;;;;0.13;97.00;100309.25;4990196;28;20539;-59
2021/01/07 05:52:31;;;;;;;15.68;9.52;;;;;;;0.32;96.65;100313.19;5000116;28;20120;-59
2021/01/07 05:54:58;;;;;;;14.13;8.57;;;;;;;0.34;95.76;100315.72;5003271;28;20062;-56
2021/01/07 05:57:25;;;;;;;14.32;8.68;;;;;;;0.40;95.68;100311.25;5002201;28;20046;-57
2021/01/07 05:59:53;;;;;;;15.60;9.65;;;;;;;0.36;95.61;100312.22;5004811;28;20049;-54
2021/01/07 06:02:20;;;;;;;14.63;9.32;;;;;;;0.11;96.19;100311.03;4987137;28;20065;-56
2021/01/07 06:04:47;;;;;;;14.60;9.40;;;;;;;0.21;96.18;100320.31;4986003;28;20050;-58
2021/01/07 06:07:17;;;;;;;17.27;10.48;;;;;;;0.10;96.67;100320.53;5003835;28;20053;-60
2021/01/07 06:09:48;;;;;;;17.92;10.25;;;;;;;0.06;95.99;100313.72;5002869;28;20061;-59
2021/01/07 06:12:15;;;;;;;19.70;10.57;;;;;;;0.19;96.84;100317.75;4998916;28;20050;-60
2021/01/07 06:14:43;;;;;;;16.13;9.68;;;;;;;0.18;96.71;100312.59;4981420;28;20068;-59
2021/01/07 06:17:10;;;;;;;15.90;10.25;;;;;;;0.26;96.20;100318.47;5001396;28;20415;-60
2021/01/07 06:19:38;;;;;;;17.60;10.57;;;;;;;0.32;96.33;100314.91;4987495;28;20468;-60
2021/01/07 06:22:10;;;;;;;18.27;10.88;;;;;;;0.22;96.23;100314.25;5019588;23;20060;-50
2021/01/07 06:24:38;;;;;;;16.63;9.80;;;;;;;0.22;96.52;100319.41;5015121;28;20536;-57
2021/01/07 06:27:25;;;;;;;14.60;9.90;;;;;;;0.09;96.85;100313.69;5018900;28;20187;-57
2021/01/07 06:30:07;;;;;;;14.48;9.98;;;;;;;0.33;96.29;100325.22;5006901;28;20224;-54
2021/01/07 06:32:34;;;;;;;15.65;9.45;;;;;;;0.37;95.39;100318.25;5016883;28;20123;-52
2021/01/07 06:35:01;;;;;;;16.85;10.27;;;;;;;0.27;94.75;100317.59;5001179;28;20080;-51
2021/01/07 06:37:38;;;;;;;25.33;10.13;;;;;;;0.30;95.86;100316.66;5002195;28;20053;-55
2021/01/07 06:40:06;;;;;;;14.48;9.13;;;;;;;0.35;95.14;100312.25;5000225;28;20394;-54
2021/01/07 06:42:38;;;;;;;18.92;10.15;;;;;;;0.33;96.06;100325.22;4985450;28;20578;-55
2021/01/07 06:45:07;;;;;;;15.13;9.05;;;;;;;0.24;95.55;100323.69;4999281;28;20110;-54
2021/01/07 06:47:34;;;;;;;19.05;9.57;;;;;;;0.31;95.44;100310.59;5000589;28;20092;-55
2021/01/07 06:50:00;;;;;;;17.90;9.52;;;;;;;0.38;96.63;100320.81;5003827;28;20064;-54
2021/01/07 06:52:38;;;;;;;15.82;9.15;;;;;;;0.39;95.68;100324.25;5007607;28;20078;-52
2021/01/07 06:55:12;;;;;;;15.43;9.38;;;;;;;0.35;95.06;100325.19;5003957;28;20528;-51
2021/01/07 06:57:42;;;;;;;16.73;10.30;;;;;;;0.61;95.53;100330.66;5003882;28;20046;-57
2021/01/07 07:00:19;;;;;;;15.80;9.05;;;;;;;0.60;94.71;100333.28;5003634;28;20053;-51
2021/01/07 07:02:56;;;;;;;16.58;9.55;;;;;;;0.55;94.93;100335.97;4996399;28;20137;-51
2021/01/07 07:05:25;;;;;;;21.75;11.35;;;;;;;0.69;94.56;100338.25;4988741;28;20057;-53
2021/01/07 07:08:04;;;;;;;15.20;10.45;;;;;;;0.45;94.41;100332.75;4990908;28;20395;-54
2021/01/07 07:10:33;;;;;;;18.08;10.10;;;;;;;0.54;94.23;100335.97;4999585;28;20060;-56
2021/01/07 07:13:16;;;;;;;17.15;9.40;;;;;;;0.47;94.66;100333.53;5004810;28;20056;-52
2021/01/07 07:15:43;;;;;;;15.88;9.73;;;;;;;0.58;94.63;100343.66;4990206;28;20041;-51
2021/01/07 07:18:10;;;;;;;21.95;10.00;;;;;;;0.57;94.07;100341.97;4983032;28;20336;-55
2021/01/07 07:20:41;;;;;;;16.52;9.35;;;;;;;0.55;93.81;100348.91;5007416;28;20061;-52
2021/01/07 07:23:13;;;;;;;15.80;9.98;;;;;;;0.52;94.05;100348.97;4991184;28;20553;-56
2021/01/07 07:25:40;;;;;;;18.63;10.20;;;;;;;0.43;94.37;100347.44;4999328;28;20054;-55
2021/01/07 07:28:09;;;;;;;16.75;10.10;;;;;;;0.52;94.21;100348.13;4998102;28;20049;-53
2021/01/07 07:30:39;;;;;;;19.05;11.02;;;;;;;0.36;94.26;100356.25;4990196;28;20444;-57
2021/01/07 07:33:06;;;;;;;17.38;10.77;;;;;;;0.41;94.74;100353.56;4995292;28;20092;-57
2021/01/07 07:35:34;;;;;;;18.92;9.18;;;;;;;0.59;94.13;100357.47;5001301;28;20065;-54
2021/01/07 07:38:01;;;;;;;41.50;13.07;;;;;;;0.71;94.35;100364.97;4998381;28;20053;-54
2021/01/07 07:40:36;;;;;;;18.52;10.00;;;;;;;0.66;93.67;100357.28;5000000;28;20092;-55
2021/01/07 07:43:03;;;;;;;25.05;10.60;;;;;;;0.57;93.96;100357.50;5002398;28;20303;-56
2021/01/07 07:45:32;;;;;;;25.42;10.30;;;;;;;1.02;94.08;100358.16;4988362;28;20153;-55
2021/01/07 07:47:58;;;;;;;20.77;10.43;;;;;;;1.16;93.71;100363.03;4982964;28;20402;-51
2021/01/07 07:50:28;;;;;;;34.80;11.48;;;;;;;1.17;94.26;100358.69;4987467;28;20793;-56
2021/01/07 07:53:08;;;;;;;14.45;8.15;;;;;;;0.74;92.50;100368.34;4984642;28;20057;-55
2021/01/07 07:55:36;;;;;;;17.33;9.38;;;;;;;0.58;93.42;100369.56;4981699;28;20298;-55
2021/01/07 07:58:16;;;;;;;16.58;9.93;;;;;;;0.59;94.16;100371.28;4985855;28;20050;-56
2021/01/07 08:00:58;;;;;;;15.98;9.80;;;;;;;0.71;93.57;100370.13;4971341;28;20247;-53
2021/01/07 08:03:27;;;;;;;26.80;10.30;;;;;;;0.76;93.14;100378.66;4979962;28;20062;-55
2021/01/07 08:05:55;;;;;;;20.00;9.55;;;;;;;0.65;93.86;100381.50;4969704;28;20044;-52
2021/01/07 08:08:29;;;;;;;15.30;9.38;;;;;;;0.70;93.73;100381.41;4980413;28;20054;-57
2021/01/07 08:10:57;;;;;;;15.65;9.30;;;;;;;0.83;93.33;100380.22;4984561;28;20065;-53
2021/01/07 08:13:28;;;;;;;27.48;10.85;;;;;;;0.68;94.21;100381.44;4981098;28;20060;-55
2021/01/07 08:15:56;;;;;;;15.75;9.38;;;;;;;0.80;93.92;100388.06;4992127;28;20070;-54
2021/01/07 08:18:26;;;;;;;21.13;9.63;;;;;;;0.64;93.84;100389.31;4970890;28;20056;-59
2021/01/07 08:20:54;;;;;;;17.42;9.02;;;;;;;0.76;94.12;100381.25;4981534;28;20066;-56
2021/01/07 08:23:22;;;;;;;17.35;9.30;;;;;;;0.80;93.85;100387.22;4969645;28;20752;-57
2021/01/07 08:25:51;;;;;;;18.17;10.30;;;;;;;0.71;93.76;100391.72;4983318;28;20058;-58
2021/01/07 08:28:37;;;;;;;16.98;9.88;;;;;;;0.73;93.89;100394.28;4948818;28;20061;-57
2021/01/07 08:31:09;;;;;;;17.95;9.73;;;;;;;0.74;93.89;100388.22;4961615;28;20210;-56
2021/01/07 08:33:36;;;;;;;18.70;10.25;;;;;;;0.79;93.52;100399.31;4972358;28;20132;-53
2021/01/07 08:36:14;;;;;;;17.25;9.93;;;;;;;0.62;93.47;100391.91;4985142;28;20038;-54
2021/01/07 08:38:41;;;;;;;15.57;9.57;;;;;;;0.58;94.16;100392.03;4970792;28;20060;-55
2021/01/07 08:41:15;;;;;;;15.88;9.75;;;;;;;0.65;94.05;100386.69;4980937;28;20398;-56
2021/01/07 08:43:44;;;;;;;15.73;9.38;;;;;;;0.70;93.42;100386.56;4984799;28;20642;-52
2021/01/07 08:46:12;;;;;;;14.02;8.77;;;;;;;0.70;93.25;100390.00;4982951;28;20387;-57
2021/01/07 08:48:39;;;;;;;14.10;8.23;;;;;;;0.55;93.45;100384.34;4984699;28;20046;-51
2021/01/07 08:51:19;;;;;;;13.77;8.73;;;;;;;0.61;93.94;100381.59;4984156;28;20149;-56
2021/01/07 08:53:53;;;;;;;15.50;8.85;;;;;;;0.66;93.74;100384.94;4983953;28;20058;-53
2021/01/07 08:56:30;;;;;;;18.80;10.68;;;;;;;0.62;94.09;100381.56;4962490;28;20146;-55
2021/01/07 08:59:33;;;;;;;14.35;8.90;;;;;;;0.86;93.65;100380.19;4984857;28;20442;-54
2021/01/07 09:02:21;;;;;;;19.33;8.95;;;;;;;0.96;92.79;100378.22;4938164;28;20523;-60
2021/01/07 09:04:52;;;;;;;16.30;8.30;;;;;;;0.95;91.92;100372.19;4983020;28;20142;-54
2021/01/07 09:07:20;;;;;;;17.75;9.50;;;;;;;0.88;92.56;100378.38;4984135;28;20090;-52
2021/01/07 09:09:50;;;;;;;15.43;8.93;;;;;;;0.96;91.80;100379.06;4977670;28;20539;-53
2021/01/07 09:12:28;;;;;;;12.80;7.93;;;;;;;0.83;91.51;100380.22;4978770;28;20512;-52
2021/01/07 09:15:07;;;;;;;16.23;7.45;;;;;;;0.82;92.29;100382.88;4974607;28;20067;-52
2021/01/07 09:17:45;;;;;;;18.02;8.20;;;;;;;0.80;92.27;100377.69;4964187;28;20068;-54
2021/01/07 09:20:15;;;;;;;12.45;7.53;;;;;;;0.92;92.13;100381.75;4983724;28;20047;-55
2021/01/07 09:22:42;;;;;;;17.35;8.98;;;;;;;1.07;91.88;100385.72;4977233;28;20238;-56
2021/01/07 09:25:15;;;;;;;14.43;8.45;;;;;;;1.02;90.96;100384.09;4985500;28;20065;-55
2021/01/07 09:27:42;;;;;;;12.63;7.45;;;;;;;0.88;91.45;100398.28;4985744;28;20535;-52
2021/01/07 09:30:09;;;;;;;13.35;7.60;;;;;;;0.79;92.05;100390.69;4981176;28;20431;-51
2021/01/07 09:32:36;;;;;;;17.33;8.07;;;;;;;0.83;92.72;100389.75;4958029;28;20045;-55
2021/01/07 09:35:03;;;;;;;13.63;7.75;;;;;;;0.84;92.27;100396.63;4983126;28;20531;-56
2021/01/07 09:37:33;;;;;;;14.43;7.32;;;;;;;0.79;92.27;100381.19;4981367;28;20068;-53
2021/01/07 09:40:00;;;;;;;12.18;7.88;;;;;;;0.71;93.03;100390.88;4987984;28;20627;-55
2021/01/07 09:42:31;;;;;;;13.98;7.50;;;;;;;0.83;92.87;100394.94;4979397;28;20504;-53
2021/01/07 09:44:58;;;;;;;13.30;7.07;;;;;;;0.91;92.35;100391.28;4965541;28;20088;-56
2021/01/07 09:47:25;;;;;;;15.75;7.20;;;;;;;0.88;91.87;100399.13;4986211;28;20365;-55
2021/01/07 09:49:52;;;;;;;12.13;7.47;;;;;;;0.94;92.07;100393.78;4982623;28;20431;-56
2021/01/07 09:52:19;;;;;;;15.90;6.78;;;;;;;1.01;91.36;100392.75;4983447;28;20065;-57
2021/01/07 09:54:45;;;;;;;12.55;6.68;;;;;;;1.04;91.49;100391.84;4967883;28;20046;-52
2021/01/07 09:57:12;;;;;;;12.18;7.38;;;;;;;0.87;91.69;100386.22;4987438;28;20415;-55
2021/01/07 09:59:39;;;;;;;10.90;6.15;;;;;;;1.07;91.31;100389.16;4986435;28;20074;-57
2021/01/07 10:02:08;;;;;;;13.05;7.40;;;;;;;1.15;90.95;100389.84;4966367;28;20077;-54
2021/01/07 10:04:35;;;;;;;19.50;9.07;;;;;;;1.18;90.21;100382.00;4984904;28;20054;-53
2021/01/07 10:07:04;;;;;;;12.95;6.22;;;;;;;0.89;90.52;100379.22;4972234;28;20180;-54
2021/01/07 10:09:31;;;;;;;11.27;6.53;;;;;;;0.84;91.30;100386.25;4987702;28;20393;-51
2021/01/07 10:11:58;;;;;;;14.13;7.07;;;;;;;0.93;90.77;100380.88;4987041;28;20799;-55
2021/01/07 10:14:27;;;;;;;10.70;6.00;;;;;;;0.84;91.17;100386.25;4986586;28;20061;-56
2021/01/07 10:17:00;;;;;;;11.02;6.38;;;;;;;0.92;90.87;100387.78;4987686;28;20085;-55
2021/01/07 10:19:30;;;;;;;13.23;6.07;;;;;;;0.95;90.82;100381.69;4990597;28;20181;-55
2021/01/07 10:22:03;;;;;;;10.48;5.93;;;;;;;1.08;89.87;100374.47;4951322;28;20668;-51
2021/01/07 10:24:39;;;;;;;16.85;5.97;;;;;;;1.00;89.81;100382.44;4975402;28;20050;-51
2021/01/07 10:27:06;;;;;;;18.77;6.18;;;;;;;0.99;89.97;100384.19;4988714;28;20050;-52
2021/01/07 10:29:34;;;;;;;11.13;5.82;;;;;;;0.85;89.94;100386.22;4972238;28;20057;-56
2021/01/07 10:32:06;;;;;;;11.13;6.05;;;;;;;0.93;90.31;100378.28;4950776;28;20527;-50
2021/01/07 10:34:44;;;;;;;10.27;6.35;;;;;;;1.02;90.04;100376.31;4985444;28;20050;-55
2021/01/07 10:37:13;;;;;;;7.28;5.25;;;;;;;1.05;90.28;100374.56;4985687;28;20522;-56
2021/01/07 10:39:41;;;;;;;11.00;6.68;;;;;;;1.06;90.14;100371.06;4988456;28;20044;-52
2021/01/07 10:42:13;;;;;;;9.93;5.45;;;;;;;1.25;89.31;100378.34;4984190;28;20054;-55
2021/01/07 10:44:41;;;;;;;14.38;5.80;;;;;;;1.15;89.23;100370.84;4985525;28;20050;-57
2021/01/07 10:47:10;;;;;;;10.05;5.63;;;;;;;1.10;89.86;100378.72;4986091;28;20594;-53
2021/01/07 10:49:37;;;;;;;10.32;6.10;;;;;;;0.88;89.60;100375.78;4985907;28;20062;-53
2021/01/07 10:52:07;;;;;;;7.85;5.13;;;;;;;0.90;90.49;100378.34;4978253;28;20609;-56
2021/01/07 10:54:48;;;;;;;10.00;5.85;;;;;;;1.11;90.15;100369.22;4985297;28;20053;-51
2021/01/07 10:57:40;;;;;;;10.32;5.10;;;;;;;0.94;89.97;100375.63;4984743;28;20062;-55
2021/01/07 11:00:08;;;;;;;7.80;5.18;;;;;;;1.01;90.76;100366.84;4994953;28;20116;-55
2021/01/07 11:02:50;;;;;;;8.52;5.80;;;;;;;1.17;90.36;100369.06;4982598;28;20062;-51
2021/01/07 11:05:17;;;;;;;17.38;5.50;;;;;;;0.90;90.72;100373.16;4977047;28;20496;-54
2021/01/07 11:07:51;;;;;;;22.27;7.05;;;;;;;0.84;91.58;100366.38;4991363;28;20053;-54
2021/01/07 11:10:18;;;;;;;10.18;5.22;;;;;;;0.87;90.86;100376.69;4989851;28;20054;-57
2021/01/07 11:12:54;;;;;;;12.05;7.55;;;;;;;0.90;91.59;100366.25;4983876;28;20046;-57
2021/01/07 11:15:24;;;;;;;12.48;6.28;;;;;;;0.96;91.07;100360.91;4995374;28;20064;-52
2021/01/07 11:18:19;;;;;;;15.77;5.35;;;;;;;0.94;90.97;100357.50;4991870;28;20093;-58
2021/01/07 11:20:49;;;;;;;8.23;5.60;;;;;;;0.75;91.52;100367.44;4968303;28;20058;-56
2021/01/07 11:23:17;;;;;;;12.27;5.65;;;;;;;1.39;90.43;100351.22;4978017;28;20069;-55
2021/01/07 11:25:47;;;;;;;9.48;5.13;;;;;;;1.41;90.31;100354.66;4975977;28;20083;-56
2021/01/07 11:28:18;;;;;;;9.15;4.93;;;;;;;1.20;89.07;100349.09;4973788;28;20162;-53
2021/01/07 11:30:45;;;;;;;9.32;5.03;;;;;;;1.23;89.34;100351.63;4976074;28;20069;-55
2021/01/07 11:33:11;;;;;;;11.75;5.47;;;;;;;1.29;89.25;100342.81;4954589;28;20062;-53
2021/01/07 11:35:41;;;;;;;9.48;5.00;;;;;;;1.16;89.48;100346.63;4985565;28;20070;-53